createdAt,value
2022-11-21T00:01:26.961Z,99443.10
2022-11-21T00:03:55.301Z,99444.21
2022-11-21T00:06:23.877Z,99447.68
2022-11-21T00:08:52.606Z,99450.14
2022-11-21T00:11:21.016Z,99452.80
2022-11-21T00:13:49.465Z,99448.10
2022-11-21T00:16:17.893Z,99443.23
2022-11-21T00:18:46.341Z,99442.63
2022-11-21T00:21:17.812Z,99440.45
2022-11-21T00:23:47.803Z,99434.33
2022-11-21T00:26:17.534Z,99428.73
2022-11-21T00:28:45.988Z,99430.48
2022-11-21T00:31:24.180Z,99427.42
2022-11-21T00:33:52.574Z,99414.61
2022-11-21T00:36:20.992Z,99406.75
2022-11-21T00:38:52.149Z,99403.61
2022-11-21T00:41:20.486Z,99407.32
2022-11-21T00:43:48.821Z,99413.37
2022-11-21T00:46:17.140Z,99405.90
2022-11-21T00:48:45.509Z,99408.63
2022-11-21T00:51:13.901Z,99409.07
2022-11-21T00:53:42.752Z,99406.08
2022-11-21T00:56:11.032Z,99402.11
2022-11-21T00:58:41.691Z,99402.69
2022-11-21T01:01:13.492Z,99398.73
2022-11-21T01:03:42.406Z,99394.20
2022-11-21T01:06:14.543Z,99396.58
2022-11-21T01:08:45.166Z,99387.95
2022-11-21T01:11:20.089Z,99380.52
2022-11-21T01:13:49.058Z,99379.09
2022-11-21T01:16:25.253Z,99372.36
2022-11-21T01:18:54.004Z,99359.80
2022-11-21T01:21:29.161Z,99359.71
2022-11-21T01:24:01.185Z,99350.44
2022-11-21T01:26:32.972Z,99350.91
2022-11-21T01:29:01.360Z,99347.54
2022-11-21T01:31:30.895Z,99340.41
2022-11-21T01:34:02.568Z,99334.30
2022-11-21T01:36:33.548Z,99339.92
2022-11-21T01:39:07.308Z,99351.74
2022-11-21T01:41:45.250Z,99345.45
2022-11-21T01:44:45.427Z,99347.70
2022-11-21T01:47:13.754Z,99342.89
2022-11-21T01:49:43.906Z,99336.73
2022-11-21T01:52:28.270Z,99333.54
2022-11-21T01:55:10.523Z,99323.27
2022-11-21T01:57:44.997Z,99319.55
2022-11-21T02:00:24.417Z,99317.44
2022-11-21T02:03:02.315Z,99317.66
2022-11-21T02:05:35.404Z,99311.17
2022-11-21T02:08:15.668Z,99312.23
2022-11-21T02:11:16.110Z,99308.66
2022-11-21T02:13:44.564Z,99311.06
2022-11-21T02:16:13.030Z,99311.22
2022-11-21T02:18:41.513Z,99308.86
2022-11-21T02:21:38.315Z,99306.33
2022-11-21T02:24:24.264Z,99298.83
2022-11-21T02:26:52.721Z,99299.19
2022-11-21T02:29:21.160Z,99293.93
2022-11-21T02:31:49.531Z,99293.50
2022-11-21T02:34:17.898Z,99289.54
2022-11-21T02:36:47.592Z,99277.70
2022-11-21T02:39:35.948Z,99270.79
2022-11-21T02:42:14.823Z,99260.04
2022-11-21T02:45:14.158Z,99251.32
2022-11-21T02:47:43.784Z,99250.45
2022-11-21T02:50:34.177Z,99252.40
2022-11-21T02:53:05.599Z,99246.52
2022-11-21T02:55:34.198Z,99243.34
2022-11-21T02:58:05.247Z,99238.60
2022-11-21T03:00:36.148Z,99240.01
2022-11-21T03:03:04.766Z,99240.20
2022-11-21T03:05:33.493Z,99235.25
2022-11-21T03:08:01.953Z,99233.42
2022-11-21T03:10:30.328Z,99233.23
2022-11-21T03:13:01.941Z,99234.03
2022-11-21T03:15:34.010Z,99226.42
2022-11-21T03:18:03.944Z,99222.42
2022-11-21T03:20:34.898Z,99216.03
2022-11-21T03:23:03.459Z,99199.60
2022-11-21T03:25:31.957Z,99195.65
2022-11-21T03:28:00.276Z,99195.52
2022-11-21T03:30:28.832Z,99198.97
2022-11-21T03:32:57.815Z,99192.09
2022-11-21T03:35:26.724Z,99191.34
2022-11-21T03:37:57.557Z,99189.71
2022-11-21T03:40:25.917Z,99186.29
2022-11-21T03:42:54.228Z,99177.79
2022-11-21T03:45:22.619Z,99166.13
2022-11-21T03:47:50.954Z,99158.45
2022-11-21T03:50:21.057Z,99152.08
2022-11-21T03:52:49.416Z,99151.02
2022-11-21T03:55:17.843Z,99145.88
2022-11-21T03:57:46.218Z,99146.69
2022-11-21T04:00:15.924Z,99143.28
2022-11-21T04:02:44.360Z,99140.33
2022-11-21T04:05:12.715Z,99138.02
2022-11-21T04:07:41.167Z,99134.24
2022-11-21T04:10:10.164Z,99133.00
2022-11-21T04:12:38.488Z,99130.45
2022-11-21T04:15:13.147Z,99124.37
2022-11-21T04:17:42.190Z,99117.14
2022-11-21T04:20:11.497Z,99119.82
2022-11-21T04:22:39.985Z,99111.85
2022-11-21T04:25:08.557Z,99107.61
2022-11-21T04:27:36.990Z,99105.98
2022-11-21T04:30:07.126Z,99102.36
2022-11-21T04:32:35.437Z,99093.33
2022-11-21T04:35:04.151Z,99088.55
2022-11-21T04:37:32.479Z,99087.23
2022-11-21T04:40:00.905Z,99081.95
2022-11-21T04:42:29.302Z,99076.74
2022-11-21T04:44:57.684Z,99073.82
2022-11-21T04:47:26.037Z,99070.84
2022-11-21T04:49:54.421Z,99066.88
2022-11-21T04:52:22.848Z,99056.07
2022-11-21T04:54:51.666Z,99044.77
2022-11-21T04:57:19.961Z,99043.65
2022-11-21T04:59:48.479Z,99044.55
2022-11-21T05:02:16.811Z,99050.77
2022-11-21T05:04:45.141Z,99052.15
2022-11-21T05:07:14.526Z,99046.13
2022-11-21T05:09:42.943Z,99044.70
2022-11-21T05:12:30.730Z,99043.95
2022-11-21T05:14:59.048Z,99047.63
2022-11-21T05:17:30.646Z,99047.51
2022-11-21T05:19:58.938Z,99043.77
2022-11-21T05:22:27.494Z,99037.67
2022-11-21T05:24:55.874Z,99036.76
2022-11-21T05:27:24.220Z,99036.61
2022-11-21T05:29:53.360Z,99030.06
2022-11-21T05:32:21.880Z,99028.27
2022-11-21T05:34:52.806Z,99021.47
2022-11-21T05:37:22.014Z,99022.52
2022-11-21T05:39:50.390Z,99015.64
2022-11-21T05:42:38.651Z,99007.71
2022-11-21T05:45:08.094Z,98996.67
2022-11-21T05:47:36.406Z,98993.59
2022-11-21T05:50:05.317Z,98989.58
2022-11-21T05:52:33.685Z,98981.72
2022-11-21T05:55:02.039Z,98984.83
2022-11-21T05:57:31.295Z,98982.67
2022-11-21T05:59:59.682Z,98976.30
2022-11-21T06:02:47.091Z,98975.88
2022-11-21T06:05:15.534Z,98978.73
2022-11-21T06:07:44.041Z,98982.98
2022-11-21T06:10:12.405Z,98984.67
2022-11-21T06:12:40.653Z,98982.56
2022-11-21T06:15:09.566Z,98980.77
2022-11-21T06:17:37.832Z,98975.06
2022-11-21T06:20:07.042Z,98970.89
2022-11-21T06:22:35.314Z,98963.79
2022-11-21T06:25:03.914Z,98960.83
2022-11-21T06:27:32.192Z,98958.05
2022-11-21T06:30:03.993Z,98956.10
2022-11-21T06:32:38.169Z,98952.73
2022-11-21T06:35:07.033Z,98958.46
2022-11-21T06:37:37.745Z,98961.02
2022-11-21T06:40:06.906Z,98951.72
2022-11-21T06:42:35.209Z,98944.42
2022-11-21T06:45:04.705Z,98948.10
2022-11-21T06:47:35.992Z,98954.25
2022-11-21T06:50:04.623Z,98959.34
2022-11-21T06:52:33.871Z,98959.08
2022-11-21T06:55:03.087Z,98958.31
2022-11-21T06:57:32.951Z,98954.48
2022-11-21T07:00:01.317Z,98949.02
2022-11-21T07:02:29.641Z,98950.64
2022-11-21T07:04:57.934Z,98944.16
2022-11-21T07:07:26.406Z,98948.42
2022-11-21T07:10:00.081Z,98952.15
2022-11-21T07:12:46.977Z,98957.78
2022-11-21T07:15:15.934Z,98962.66
2022-11-21T07:17:44.256Z,98961.27
2022-11-21T07:20:13.525Z,98961.90
2022-11-21T07:22:41.974Z,98962.11
2022-11-21T07:25:13.029Z,98962.83
2022-11-21T07:27:41.947Z,98963.42
2022-11-21T07:30:11.087Z,98959.04
2022-11-21T07:32:39.515Z,98957.06
2022-11-21T07:35:09.894Z,98952.28
2022-11-21T07:37:40.982Z,98954.54
2022-11-21T07:40:09.791Z,98953.09
2022-11-21T07:42:38.087Z,98955.58
2022-11-21T07:45:07.093Z,98957.41
2022-11-21T07:47:35.490Z,98953.73
2022-11-21T07:50:05.903Z,98949.27
2022-11-21T07:52:34.895Z,98951.64
2022-11-21T07:55:06.321Z,98951.55
2022-11-21T07:57:34.682Z,98951.73
2022-11-21T08:00:03.766Z,98948.86
2022-11-21T08:02:32.065Z,98949.79
2022-11-21T08:05:00.385Z,98948.24
2022-11-21T08:07:28.693Z,98945.80
2022-11-21T08:09:57.371Z,98947.05
2022-11-21T08:12:26.474Z,98943.33
2022-11-21T08:14:54.930Z,98947.36
2022-11-21T08:17:26.324Z,98947.65
2022-11-21T08:19:54.760Z,98948.45
2022-11-21T08:22:23.153Z,98949.20
2022-11-21T08:24:51.490Z,98946.94
2022-11-21T08:27:21.768Z,98947.23
2022-11-21T08:29:50.703Z,98950.56
2022-11-21T08:32:21.794Z,98948.88
2022-11-21T08:34:50.158Z,98950.06
2022-11-21T08:39:00.581Z,98952.04
2022-11-21T08:41:47.618Z,98950.09
2022-11-21T08:44:16.048Z,98945.29
2022-11-21T08:46:44.594Z,98950.09
2022-11-21T08:49:12.985Z,98945.62
2022-11-21T08:51:41.510Z,98945.16
2022-11-21T08:54:10.045Z,98940.07
2022-11-21T08:56:38.522Z,98946.14
2022-11-21T08:59:07.600Z,98946.59
2022-11-21T09:01:36.073Z,98945.55
2022-11-21T09:04:06.080Z,98944.53
2022-11-21T09:06:35.265Z,98946.63
2022-11-21T09:09:06.402Z,98948.95
2022-11-21T09:11:37.623Z,98952.98
2022-11-21T09:14:24.871Z,98952.94
2022-11-21T09:17:12.212Z,98952.58
2022-11-21T09:19:40.638Z,98949.53
2022-11-21T09:22:09.045Z,98950.80
2022-11-21T09:24:37.301Z,98947.66
2022-11-21T09:27:05.623Z,98945.37
2022-11-21T09:29:34.038Z,98952.17
2022-11-21T09:32:02.459Z,98951.38
2022-11-21T09:34:31.904Z,98950.59
2022-11-21T09:37:00.385Z,98949.80
2022-11-21T09:39:29.004Z,98948.23
2022-11-21T09:42:19.218Z,98951.58
2022-11-21T09:45:19.515Z,98946.02
2022-11-21T09:47:52.491Z,98944.79
2022-11-21T09:50:34.837Z,98949.29
2022-11-21T09:53:19.217Z,98949.55
2022-11-21T09:56:14.058Z,98949.98
2022-11-21T09:58:50.489Z,98944.88
2022-11-21T10:01:18.977Z,98949.71
2022-11-21T10:07:30.433Z,98951.25
2022-11-21T10:10:52.330Z,98950.62
2022-11-21T10:14:00.615Z,98952.06
2022-11-21T10:16:57.436Z,98953.33
2022-11-21T10:19:59.543Z,98950.06
2022-11-21T10:23:13.942Z,98946.16
2022-11-21T10:25:57.384Z,98947.48
2022-11-21T10:29:11.007Z,98944.35
2022-11-21T10:31:42.882Z,98942.46
2022-11-21T10:34:20.614Z,98942.61
2022-11-21T10:36:56.492Z,98945.19
2022-11-21T10:39:44.338Z,98939.86
2022-11-21T10:42:36.365Z,98944.39
2022-11-21T10:45:19.426Z,98944.20
2022-11-21T10:47:51.192Z,98945.20
2022-11-21T10:50:31.772Z,98946.11
2022-11-21T10:53:36.232Z,98942.85
2022-11-21T10:56:27.532Z,98944.66
2022-11-21T10:58:59.395Z,98945.45
2022-11-21T11:01:35.560Z,98943.03
2022-11-21T11:07:20.278Z,98944.42
2022-11-21T11:09:48.643Z,98947.45
2022-11-21T11:12:46.099Z,98948.93
2022-11-21T11:15:26.800Z,98951.05
2022-11-21T11:18:09.449Z,98954.78
2022-11-21T11:20:45.064Z,98952.73
2022-11-21T11:23:26.952Z,98951.01
2022-11-21T11:25:59.062Z,98956.34
2022-11-21T11:28:37.179Z,98957.78
2022-11-21T11:31:05.732Z,98957.91
2022-11-21T11:33:51.205Z,98960.89
2022-11-21T11:36:36.944Z,98967.09
2022-11-21T11:39:38.494Z,98965.98
2022-11-21T11:42:59.611Z,98963.67
2022-11-21T11:46:07.314Z,98968.16
2022-11-21T11:48:56.545Z,98969.88
2022-11-21T11:51:37.159Z,98966.09
2022-11-21T11:54:20.723Z,98964.93
2022-11-21T11:56:49.891Z,98963.86
2022-11-21T11:59:34.098Z,98963.70
2022-11-21T12:02:33.732Z,98962.84
2022-11-21T12:05:17.426Z,98963.94
2022-11-21T12:11:29.914Z,98961.00
2022-11-21T12:14:54.351Z,98962.90
2022-11-21T12:17:33.835Z,98968.02
2022-11-21T12:20:13.595Z,98972.29
2022-11-21T12:22:42.832Z,98975.45
2022-11-21T12:25:13.302Z,98979.73
2022-11-21T12:27:42.792Z,98984.11
2022-11-21T12:30:37.893Z,98985.85
2022-11-21T12:33:20.098Z,98989.34
2022-11-21T12:36:17.951Z,98989.79
2022-11-21T12:39:29.753Z,98990.30
2022-11-21T12:42:29.487Z,98995.35
2022-11-21T12:45:29.039Z,99003.93
2022-11-21T12:48:58.776Z,99007.02
2022-11-21T12:52:04.069Z,99014.71
2022-11-21T12:54:55.583Z,99022.48
2022-11-21T12:58:01.203Z,99025.48
2022-11-21T13:00:48.440Z,99028.27
2022-11-21T13:03:44.783Z,99039.36
2022-11-21T13:06:21.716Z,99039.88
2022-11-21T13:08:52.955Z,99044.20
2022-11-21T13:11:55.596Z,99047.61
2022-11-21T13:15:04.625Z,99050.50
2022-11-21T13:17:34.696Z,99050.17
2022-11-21T13:20:24.350Z,99051.22
2022-11-21T13:22:58.465Z,99058.70
2022-11-21T13:25:32.854Z,99062.30
2022-11-21T13:28:13.623Z,99067.07
2022-11-21T13:30:48.474Z,99074.59
2022-11-21T13:33:35.014Z,99071.31
2022-11-21T13:36:10.376Z,99082.33
2022-11-21T13:39:07.787Z,99078.65
2022-11-21T13:41:54.828Z,99085.37
2022-11-21T13:44:32.416Z,99086.95
2022-11-21T13:47:30.919Z,99098.69
2022-11-21T13:50:29.009Z,99098.64
2022-11-21T13:53:17.762Z,99100.06
2022-11-21T13:55:58.476Z,99108.17
2022-11-21T13:58:50.313Z,99107.95
2022-11-21T14:01:33.082Z,99112.20
2022-11-21T14:04:38.829Z,99113.85
2022-11-21T14:07:38.724Z,99118.92
2022-11-21T14:10:25.435Z,99119.41
2022-11-21T14:12:55.989Z,99122.41
2022-11-21T14:15:40.192Z,99125.02
2022-11-21T14:18:22.914Z,99132.01
2022-11-21T14:21:02.159Z,99135.25
2022-11-21T14:23:34.360Z,99141.73
2022-11-21T14:26:14.768Z,99146.14
2022-11-21T14:28:43.213Z,99144.73
2022-11-21T14:31:13.210Z,99149.31
2022-11-21T14:33:47.371Z,99148.28
2022-11-21T14:36:31.642Z,99153.52
2022-11-21T14:39:35.430Z,99155.91
2022-11-21T14:41:59.406Z,99154.73
2022-11-21T14:44:28.271Z,99157.05
2022-11-21T14:47:26.575Z,99157.52
2022-11-21T14:49:59.587Z,99157.71
2022-11-21T14:52:32.807Z,99162.14
2022-11-21T14:55:29.186Z,99164.27
2022-11-21T14:57:57.674Z,99166.40
2022-11-21T15:00:59.326Z,99166.97
2022-11-21T15:03:23.830Z,99164.86
2022-11-21T15:06:05.260Z,99162.61
2022-11-21T15:09:18.418Z,99157.27
2022-11-21T15:11:47.179Z,99158.92
2022-11-21T15:14:24.246Z,99158.30
2022-11-21T15:16:55.523Z,99158.02
2022-11-21T15:19:32.649Z,99157.96
2022-11-21T15:22:04.638Z,99161.88
2022-11-21T15:24:43.931Z,99164.58
2022-11-21T15:27:27.510Z,99167.81
2022-11-21T15:30:07.478Z,99170.38
2022-11-21T15:33:01.787Z,99173.27
2022-11-21T15:35:54.696Z,99175.36
2022-11-21T15:38:50.190Z,99178.66
2022-11-21T15:41:18.474Z,99182.48
2022-11-21T15:43:50.521Z,99183.84
2022-11-21T15:46:30.172Z,99185.37
2022-11-21T15:49:24.994Z,99190.98
2022-11-21T15:52:06.577Z,99192.66
2022-11-21T15:54:35.687Z,99197.80
2022-11-21T15:57:04.135Z,99198.41
2022-11-21T15:59:32.863Z,99202.11
2022-11-21T16:02:01.360Z,99201.65
2022-11-21T16:04:29.738Z,99200.94
2022-11-21T16:06:58.135Z,99206.46
2022-11-21T16:09:26.748Z,99200.77
2022-11-21T16:11:55.340Z,99195.52
2022-11-21T16:14:23.782Z,99198.46
2022-11-21T16:16:52.186Z,99199.36
2022-11-21T16:19:20.533Z,99201.32
2022-11-21T16:21:48.863Z,99202.52
2022-11-21T16:24:17.660Z,99205.13
2022-11-21T16:26:47.044Z,99209.27
2022-11-21T16:29:15.556Z,99205.92
2022-11-21T16:31:43.990Z,99208.23
2022-11-21T16:34:12.379Z,99207.45
2022-11-21T16:36:40.664Z,99201.52
2022-11-21T16:39:13.539Z,99198.93
2022-11-21T16:41:46.114Z,99197.27
2022-11-21T16:44:16.521Z,99196.67
2022-11-21T16:46:49.174Z,99199.66
2022-11-21T16:49:17.676Z,99191.58
2022-11-21T16:51:46.367Z,99189.80
2022-11-21T16:54:15.342Z,99190.11
2022-11-21T16:56:43.754Z,99187.45
2022-11-21T16:59:12.216Z,99193.00
2022-11-21T17:01:40.694Z,99195.77
2022-11-21T17:04:14.171Z,99199.83
2022-11-21T17:06:47.170Z,99201.95
2022-11-21T17:09:16.881Z,99204.46
2022-11-21T17:11:45.270Z,99207.05
2022-11-21T17:14:13.751Z,99209.00
2022-11-21T17:16:42.118Z,99204.05
2022-11-21T17:19:12.202Z,99206.21
2022-11-21T17:21:40.715Z,99204.40
2022-11-21T17:24:09.049Z,99204.06
2022-11-21T17:28:42.328Z,99209.39
2022-11-21T17:31:17.324Z,99210.19
2022-11-21T17:33:50.291Z,99216.95
2022-11-21T17:36:21.744Z,99220.29
2022-11-21T17:38:51.505Z,99216.63
2022-11-21T17:41:22.389Z,99215.82
2022-11-21T17:43:57.480Z,99217.05
2022-11-21T17:46:26.794Z,99213.38
2022-11-21T17:49:27.123Z,99220.57
2022-11-21T17:51:56.893Z,99215.66
2022-11-21T17:54:25.906Z,99215.90
2022-11-21T17:56:57.002Z,99220.01
2022-11-21T17:59:27.517Z,99221.73
2022-11-21T18:01:56.532Z,99224.69
2022-11-21T18:04:25.142Z,99227.27
2022-11-21T18:06:53.501Z,99229.44
2022-11-21T18:09:21.877Z,99231.95
2022-11-21T18:11:50.330Z,99229.27
2022-11-21T18:14:18.890Z,99229.53
2022-11-21T18:16:52.769Z,99230.60
2022-11-21T18:19:22.428Z,99224.61
2022-11-21T18:21:51.919Z,99220.15
2022-11-21T18:24:20.591Z,99214.38
2022-11-21T18:26:48.963Z,99220.30
2022-11-21T18:31:59.027Z,99215.86
2022-11-21T18:34:27.565Z,99218.05
2022-11-21T18:36:56.426Z,99216.80
2022-11-21T18:39:25.168Z,99217.47
2022-11-21T18:41:55.655Z,99218.69
2022-11-21T18:44:24.529Z,99217.54
2022-11-21T18:46:52.885Z,99217.73
2022-11-21T18:49:23.664Z,99211.14
2022-11-21T18:51:52.206Z,99212.12
2022-11-21T18:54:20.894Z,99211.20
2022-11-21T18:56:49.306Z,99212.48
2022-11-21T18:59:17.754Z,99209.78
2022-11-21T19:01:46.294Z,99215.48
2022-11-21T19:04:15.886Z,99217.61
2022-11-21T19:06:44.253Z,99215.63
2022-11-21T19:12:09.317Z,99216.69
2022-11-21T19:14:37.653Z,99216.14
2022-11-21T19:17:05.971Z,99207.46
2022-11-21T19:19:35.735Z,99202.45
2022-11-21T19:22:06.297Z,99199.98
2022-11-21T19:24:35.749Z,99204.02
2022-11-21T19:27:04.904Z,99218.48
2022-11-21T19:29:33.569Z,99217.91
2022-11-21T19:32:02.143Z,99212.01
2022-11-21T19:34:30.470Z,99213.65
2022-11-21T19:36:58.981Z,99210.96
2022-11-21T19:39:29.510Z,99210.70
2022-11-21T19:41:58.071Z,99211.11
2022-11-21T19:44:26.566Z,99212.38
2022-11-21T19:46:56.027Z,99214.73
2022-11-21T19:49:24.415Z,99215.16
2022-11-21T19:51:52.839Z,99214.54
2022-11-21T19:54:22.429Z,99215.11
2022-11-21T19:56:51.224Z,99216.02
2022-11-21T19:59:19.871Z,99215.73
2022-11-21T20:01:52.616Z,99219.08
2022-11-21T20:04:21.595Z,99218.33
2022-11-21T20:06:50.033Z,99220.23
2022-11-21T20:09:21.922Z,99224.17
2022-11-21T20:11:52.931Z,99224.34
2022-11-21T20:14:23.051Z,99228.44
2022-11-21T20:16:52.918Z,99232.73
2022-11-21T20:19:24.688Z,99234.36
2022-11-21T20:21:54.147Z,99238.06
2022-11-21T20:24:22.712Z,99237.56
2022-11-21T20:26:51.111Z,99235.48
2022-11-21T20:29:19.471Z,99232.73
2022-11-21T20:31:48.496Z,99235.10
2022-11-21T20:34:17.173Z,99231.31
2022-11-21T20:36:46.934Z,99240.52
2022-11-21T20:39:18.014Z,99240.39
2022-11-21T20:41:48.219Z,99243.71
2022-11-21T20:47:10.250Z,99244.28
2022-11-21T20:49:38.925Z,99240.52
2022-11-21T20:54:55.755Z,99236.17
2022-11-21T20:57:24.100Z,99239.67
2022-11-21T21:01:47.240Z,99236.42
2022-11-21T21:04:15.606Z,99234.90
2022-11-21T21:06:43.989Z,99242.26
2022-11-21T21:09:12.333Z,99245.40
2022-11-21T21:11:55.911Z,99241.69
2022-11-21T21:14:24.374Z,99233.47
2022-11-21T21:16:52.717Z,99222.34
2022-11-21T21:19:21.826Z,99218.81
2022-11-21T21:21:50.239Z,99207.14
2022-11-21T21:24:18.955Z,99204.86
2022-11-21T21:26:49.099Z,99201.92
2022-11-21T21:29:20.371Z,99203.02
2022-11-21T21:31:51.979Z,99201.67
2022-11-21T21:34:22.650Z,99201.94
2022-11-21T21:36:51.462Z,99203.95
2022-11-21T21:39:19.915Z,99209.38
2022-11-21T21:41:49.079Z,99200.38
2022-11-21T21:44:17.491Z,99191.19
2022-11-21T21:46:46.023Z,99191.60
2022-11-21T21:49:14.602Z,99188.17
2022-11-21T21:51:43.292Z,99184.54
2022-11-21T21:54:20.598Z,99180.69
2022-11-21T21:56:50.474Z,99174.75
2022-11-21T21:59:19.807Z,99170.77
2022-11-21T22:01:49.144Z,99166.75
2022-11-21T22:04:17.761Z,99165.89
2022-11-21T22:06:46.193Z,99159.29
2022-11-21T22:09:14.614Z,99156.13
2022-11-21T22:11:43.019Z,99154.54
2022-11-21T22:14:14.894Z,99155.45
2022-11-21T22:16:44.380Z,99165.56
2022-11-21T22:19:12.803Z,99168.66
2022-11-21T22:21:41.197Z,99171.88
2022-11-21T22:24:27.185Z,99168.30
2022-11-21T22:26:56.258Z,99162.50
2022-11-21T22:29:25.246Z,99156.98
2022-11-21T22:31:53.884Z,99158.66
2022-11-21T22:34:22.707Z,99150.31
2022-11-21T22:36:51.714Z,99158.39
2022-11-21T22:39:20.216Z,99162.14
2022-11-21T22:41:48.645Z,99162.32
2022-11-21T22:44:17.294Z,99167.77
2022-11-21T22:46:45.673Z,99168.52
2022-11-21T22:49:14.531Z,99167.23
2022-11-21T22:51:44.105Z,99160.70
2022-11-21T22:54:13.140Z,99160.77
2022-11-21T22:56:41.615Z,99151.69
2022-11-21T22:59:14.067Z,99149.52
2022-11-21T23:01:42.454Z,99150.70
2022-11-21T23:04:16.097Z,99157.81
2022-11-21T23:06:45.914Z,99156.73
2022-11-21T23:09:14.523Z,99154.12
2022-11-21T23:11:42.976Z,99144.80
2022-11-21T23:14:11.420Z,99146.33
2022-11-21T23:16:39.735Z,99149.60
2022-11-21T23:19:08.278Z,99159.89
2022-11-21T23:21:36.708Z,99167.16
2022-11-21T23:24:05.648Z,99166.95
2022-11-21T23:26:34.012Z,99166.29
2022-11-21T23:29:07.975Z,99167.67
2022-11-21T23:31:36.924Z,99168.27
2022-11-21T23:34:05.514Z,99171.41
2022-11-21T23:36:33.965Z,99175.60
2022-11-21T23:39:02.757Z,99177.86
2022-11-21T23:41:31.130Z,99169.77
2022-11-21T23:44:00.009Z,99165.03
2022-11-21T23:46:30.228Z,99159.77
2022-11-21T23:48:58.726Z,99162.90
2022-11-21T23:51:27.064Z,99163.71
2022-11-21T23:53:55.536Z,99163.31
2022-11-21T23:56:23.922Z,99169.79
2022-11-21T23:58:52.285Z,99171.89
